Aérodrome :
LOGIN :

S'inscrire | Disclaimer

   EN    FR    IT 

 










Légende :    VFR   VFR Marginal   IFR   IFR Intensif   IFR Très Intensif
Visi : 
Plafond : 
>= 8 km
>= 3000ft
5 à 8 km
1000 à 3000 ft
1500m à 5 km
500 à 1000 ft
800 à 1500m
200 à 500 ft
< 800m
< 200 ft
Symboles :   Orages  Brouillard  Fortes neiges  Fortes précipitations  Vent > 20 kt
SIGMETs :   Divers  Orages  Givrage  Turbulence  Onde Orograph.  Cendres Volcan.







- Altitude de l'aérodrome : 183 ft
- Code IATA : HAJ


EDDV - Hanover/Langenhagen Int.

DERNIER METAR :
  • 231820Z 28022G34KT 8000 -DZRA BKN009 11/10 Q1015 TEMPO 27020G35KT 3500 RADZ

METARs EXPIRÉS :
  • 231750Z 27017KT 240V300 9000 -DZRA BKN009 11/10 Q1014 TEMPO 27020G35KT 3500 RADZ
  • 231720Z 28018KT 5000 -RADZ BKN007 11/10 Q1014 TEMPO 27020G35KT 3500 RADZ
  • 231650Z 28019G33KT 240V300 9999 -RADZ BKN008 11/10 Q1014 TEMPO 3500 RADZ
  • 231620Z 28018G33KT 8000 -RADZ BKN008 12/10 Q1014 TEMPO 3500 RADZ
  • 231550Z 28019G30KT 9999 -RADZ BKN012 12/10 Q1014 TEMPO 3500 RADZ

TAF TAF EDDV
Valide du 23 à 18h jusqu'au 24 à 18h UTC


231700Z 2318/2418 29020G35KT 9999 BKN020
TEMPO 2318/2405 4500 -DZRA BKN012
PROB30
TEMPO 2318/2405 2500 DZRA BKN007
BECMG 2403/2406 32010KT
PROB30
TEMPO 2406/2414 32015G25KT
BECMG 2415/2418 BKN012
Pas de NOTAMs connus pour ce terrain.



MET'MAP, la Météo Aéronautique d'un coup d'oeil ! - Copyright ORBIFLY Décembre 2007 - Disclaimer

ORBIFLY MET'MAP TEAM :

Programmation & Développement : Alexandra Zaïnal
Conception & Développement : Baudouin d'Aumeries
Co-Programmation & Développement : Marc-Olivier Méhu
Soutien technique & logistique : Manuel Goepfert

Contact : metmap@orbifly.com




SOURCES & CREDITS :

   NOAA